Flight Track Log - Related Links

Times and Time Zones

All times are in EST time to prevent confusion due to time zone crossing. See the ASQ5685 flight status page for this flight to view local times or setup timezone preferences in your user account.

Time Position Orientation Groundspeed Altitude Reporting Facility
EST Latitude Longitude Course Direction KTS MPH feet Rate Location/Type
Mon 12:06:26 PM 33.6333 -84.4000 52° Northeast 198 228 2,300  Level Atlanta TRACON
Mon 12:07:20 PM 33.6333 -84.3333 90° East 263 303 3,100 1,905 Climbing Atlanta TRACON
Mon 12:08:32 PM 33.6333 -84.2000 90° East 301 346 6,300 2,476 Climbing Atlanta TRACON
Mon 12:09:26 PM 33.6333 -84.1167 90° East 320 368 8,300 1,927 Climbing Atlanta TRACON
Mon 12:10:49 PM 33.7067 -84.0064 51° Northeast 329 379 10,700 1,427 Climbing Atlanta Center
Mon 12:11:00 PM 34.1612 -83.8014 52° Northeast  Level Estimated
Mon 12:11:49 PM 33.7775 -83.9164 47° Northeast 348 400 11,700  Level Atlanta Center
Mon 12:12:49 PM 33.8503 -83.8211 47° Northeast 380 437 13,000 1,300 Climbing Atlanta Center
Mon 12:13:49 PM 33.9275 -83.7183 48° Northeast 400 460 14,300 1,500 Climbing Atlanta Center
Mon 12:14:49 PM 33.9958 -83.6078 53° Northeast 407 468 16,000 1,700 Climbing Atlanta Center
Mon 12:15:49 PM 34.0664 -83.4997 52° Northeast 407 468 17,700 1,250 Climbing Atlanta Center
Mon 12:16:49 PM 34.1411 -83.3836 52° Northeast 402 463 18,500 900 Climbing Atlanta Center
Mon 12:17:49 PM 34.2072 -83.2728 54° Northeast 402 463 19,500 1,000 Climbing Atlanta Center
Mon 12:18:49 PM 34.2753 -83.1639 53° Northeast 402 463 20,500 850 Climbing Atlanta Center
Mon 12:19:49 PM 34.3286 -83.0453 61° Northeast 402 463 21,200 600 Climbing Atlanta Center
Mon 12:20:49 PM 34.3464 -82.9117 81° East 392 451 21,700 500 Climbing Atlanta Center
Mon 12:21:49 PM 34.3597 -82.7731 83° East 403 464 22,200 500 Climbing Atlanta Center
Mon 12:22:49 PM 34.3747 -82.6244 83° East 423 487 22,700 700 Climbing Atlanta Center
Mon 12:23:49 PM 34.3958 -82.4831 80° East 429 494 23,600 1,000 Climbing Atlanta Center
Mon 12:24:49 PM 34.4128 -82.3342 82° East 429 494 24,700 950 Climbing Atlanta Center
Mon 12:25:49 PM 34.4294 -82.1928 82° East 429 494 25,500 650 Climbing Atlanta Center
Mon 12:26:49 PM 34.5047 -82.0753 52° Northeast 413 475 26,000 500 Climbing Atlanta Center
Mon 12:27:49 PM 34.5906 -81.9647 47° Northeast 427 491 26,500 450 Climbing Atlanta Center
Mon 12:28:49 PM 34.6742 -81.8514 48° Northeast 433 498 26,900 450 Climbing Atlanta Center
Mon 12:29:49 PM 34.7619 -81.7431 45° Northeast 438 504 27,400 550 Climbing Atlanta Center
Mon 12:30:49 PM 34.8433 -81.6269 49° Northeast 448 516 28,000 500 Climbing Atlanta Center
Mon 12:31:49 PM 34.9308 -81.5128 47° Northeast 448 516 28,400 500 Climbing Atlanta Center
Mon 12:32:49 PM 35.0139 -81.3961 49° Northeast 448 516 29,000 550 Climbing Atlanta Center
Mon 12:33:49 PM 35.0928 -81.2897 48° Northeast 453 521 29,500 500 Climbing Atlanta Center
Mon 12:34:49 PM 35.1778 -81.1725 48° Northeast 448 516 30,000 500 Climbing Atlanta Center
Mon 12:35:49 PM 35.2628 -81.0575 48° Northeast 448 516 30,500 500 Climbing Atlanta Center
Mon 12:36:49 PM 35.3475 -80.9425 48° Northeast 448 516 31,000 250 Climbing Atlanta Center
Mon 12:37:49 PM 35.4361 -80.8194 49° Northeast 453 521 31,000  Level Atlanta Center
Mon 12:38:49 PM 35.5247 -80.6958 49° Northeast 460 529 31,000  Level Atlanta Center
Mon 12:39:49 PM 35.6192 -80.5669 48° Northeast 480 552 31,000  Level Atlanta Center
Mon 12:40:49 PM 35.7114 -80.4403 48° Northeast 487 560 31,000  Level Atlanta Center
Mon 12:41:49 PM 35.8056 -80.3106 48° Northeast 497 572 31,000  Level Atlanta Center
Mon 12:44:08 PM 36.0178 -80.0167 48° Northeast 500 575 31,000  Level Washington Center
Mon 12:45:07 PM 36.1044 -79.8778 52° Northeast 500 575 31,000  Level Washington Center
Mon 12:46:08 PM 36.1978 -79.7128 55° Northeast 514 592 31,000  Level Washington Center
Mon 12:47:09 PM 36.2756 -79.5725 55° Northeast 517 595 31,000  Level Washington Center
Mon 12:48:07 PM 36.3508 -79.4425 54° Northeast 517 595 31,000  Level Washington Center
Mon 12:49:08 PM 36.4306 -79.2914 57° Northeast 512 589 31,000 -248 Level Washington Center
Mon 12:50:08 PM 36.5144 -79.1456 54° Northeast 522 601 30,500 -1,678 Descending Washington Center
Mon 12:51:06 PM 36.6089 -78.9789 55° Northeast 522 601 27,700 -2,672 Descending Washington Center
Mon 12:52:07 PM 36.6489 -78.8125 73° East 506 582 25,200 -1,328 Descending Washington Center
Mon 12:53:08 PM 36.6578 -78.6394 86° East 492 566 25,000 -99 Descending Washington Center
Mon 12:54:08 PM 36.6639 -78.4686 87° East 482 555 25,000  Level Washington Center
Mon 12:55:06 PM 36.6950 -78.3067 76° East 482 555 25,000  Level Washington Center
Mon 12:56:07 PM 36.8092 -78.2328 27° Northeast 416 479 25,000  Level Washington Center
Mon 12:57:08 PM 36.9211 -78.1717 24° Northeast 411 473 25,000 -454 Level Washington Center
Mon 12:58:06 PM 37.0308 -78.1131 23° Northeast 423 487 24,100 -958 Descending Washington Center
Mon 12:59:07 PM 37.1428 -78.0489 25° Northeast 423 487 23,100 -986 Descending Washington Center
Mon 01:00:32 PM 37.2694 -77.9772 24° Northeast 421 484 21,700 -1,469 Descending Washington Center
Mon 01:01:30 PM 37.3917 -77.9078 24° Northeast 409 471 19,600 -1,916 Descending Washington Center
Mon 01:02:31 PM 37.4908 -77.8481 26° Northeast 399 459 17,900 -1,574 Descending Washington Center
Mon 01:03:32 PM 37.5858 -77.7958 24° Northeast 381 438 16,400 -1,500 Descending Washington Center
Mon 01:04:31 PM 37.6742 -77.7433 25° Northeast 369 425 14,900 -1,400 Descending Washington Center
Mon 01:05:32 PM 37.7586 -77.6958 24° Northeast 348 400 13,600 -1,311 Descending Washington Center
Mon 01:06:30 PM 37.8450 -77.6456 25° Northeast 337 388 12,300 -1,311 Descending Washington Center
Mon 01:07:31 PM 37.9292 -77.5925 26° Northeast 337 388 11,000 -1,082 Descending Washington Center
Mon 01:08:32 PM 38.0156 -77.5422 25° Northeast 337 388 10,100 -496 Descending Washington Center
Mon 01:09:32 PM 38.0933 -77.4994 23° Northeast 337 388 10,000 -51 Descending Washington Center
Mon 01:10:30 PM 38.1733 -77.4511 25° Northeast 332 382 10,000 -151 Level Washington Center
Mon 01:11:31 PM 38.2556 -77.4031 25° Northeast 322 371 9,700 -885 Descending Washington Center
Mon 01:12:32 PM 38.3375 -77.3572 24° Northeast 322 371 8,200 -1,513 Descending Washington Center
Mon 01:13:30 PM 38.4147 -77.3592 359° North 293 337 6,700 -1,525 Descending Washington Center
Mon 01:14:30 PM 38.4981 -77.3639 357° North 293 337 5,200 -843 Descending Washington Center
Mon 01:15:31 PM 38.5708 -77.3656 359° North 283 326 5,000 -574 Descending Washington Center
Mon 01:16:25 PM 38.6500 -77.3667 359° North 286 329 4,100 -526 Descending Potomac TRACON
Mon 01:17:25 PM 38.7333 -77.3667 360° North 265 305 4,000 -50 Descending Potomac TRACON
Mon 01:18:25 PM 38.8000 -77.3500 11° North 264 304 4,000  Level Potomac TRACON
Mon 01:19:25 PM 38.8833 -77.3500 360° North 275 316 4,000  Level Potomac TRACON
Mon 01:20:25 PM 38.9500 -77.3500 360° North 262 302 4,000  Level Potomac TRACON
Mon 01:21:25 PM 39.0167 -77.3500 360° North 231 266 4,000 -100 Level Potomac TRACON
Mon 01:22:25 PM 39.0833 -77.3500 360° North 230 265 3,800 -500 Descending Potomac TRACON
Mon 01:23:25 PM 39.1500 -77.3500 360° North 211 243 3,000 -381 Descending Potomac TRACON
Mon 01:24:31 PM 39.1500 -77.4000 270° West 165 190 3,000 -500 Level Potomac TRACON
Mon 01:25:25 PM 39.1167 -77.4333 218° Southwest 171 197 2,000 -526 Descending Potomac TRACON
Mon 01:26:25 PM 39.0667 -77.4333 180° South 173 199 2,000 -143 Level Potomac TRACON
Mon 01:27:31 PM 39.0167 -77.4333 180° South 155 178 1,700 -500 Descending Potomac TRACON
Mon 01:28:25 PM 38.9833 -77.4333 180° South 145 167 1,000 -778 Descending Potomac TRACON
Mon 01:30:00 PM 38.9474 -77.4599 191° South  Level Estimated

Login

Don't have an account? Register now (free) for customized features, flight alerts, and more!